sensor_id;sensor_type;location;lat;lon;timestamp;P1;durP1;ratioP1;P2;durP2;ratioP2
44728;SDS011;30457;53.590;9.922;2023-02-01T00:02:44;18.30;;;3.15;;
44728;SDS011;30457;53.590;9.922;2023-02-01T00:07:09;8.07;;;2.00;;
44728;SDS011;30457;53.590;9.922;2023-02-01T00:11:35;16.17;;;2.38;;
44728;SDS011;30457;53.590;9.922;2023-02-01T00:16:10;21.05;;;3.58;;
44728;SDS011;30457;53.590;9.922;2023-02-01T00:20:47;10.50;;;2.72;;
44728;SDS011;30457;53.590;9.922;2023-02-01T00:25:12;16.80;;;2.92;;
44728;SDS011;30457;53.590;9.922;2023-02-01T00:29:38;18.00;;;3.30;;
44728;SDS011;30457;53.590;9.922;2023-02-01T00:34:04;19.67;;;4.32;;
44728;SDS011;30457;53.590;9.922;2023-02-01T00:38:29;13.32;;;3.20;;
44728;SDS011;30457;53.590;9.922;2023-02-01T00:42:56;21.90;;;4.88;;
44728;SDS011;30457;53.590;9.922;2023-02-01T00:47:22;21.48;;;3.92;;
44728;SDS011;30457;53.590;9.922;2023-02-01T00:51:48;15.02;;;2.97;;
44728;SDS011;30457;53.590;9.922;2023-02-01T00:56:14;19.88;;;3.70;;
44728;SDS011;30457;53.590;9.922;2023-02-01T01:00:40;24.42;;;5.90;;
44728;SDS011;30457;53.590;9.922;2023-02-01T01:05:05;17.58;;;3.45;;
44728;SDS011;30457;53.590;9.922;2023-02-01T01:09:31;18.75;;;4.22;;
44728;SDS011;30457;53.590;9.922;2023-02-01T01:13:58;20.85;;;3.63;;
44728;SDS011;30457;53.590;9.922;2023-02-01T01:18:24;23.40;;;4.70;;
44728;SDS011;30457;53.590;9.922;2023-02-01T01:22:50;16.17;;;3.05;;
44728;SDS011;30457;53.590;9.922;2023-02-01T01:27:15;17.75;;;3.80;;
44728;SDS011;30457;53.590;9.922;2023-02-01T01:31:47;19.38;;;3.30;;
44728;SDS011;30457;53.590;9.922;2023-02-01T01:36:13;17.92;;;4.60;;
44728;SDS011;30457;53.590;9.922;2023-02-01T01:40:39;28.08;;;4.65;;
44728;SDS011;30457;53.590;9.922;2023-02-01T01:49:46;22.05;;;4.82;;
44728;SDS011;30457;53.590;9.922;2023-02-01T01:54:14;13.68;;;4.32;;
44728;SDS011;30457;53.590;9.922;2023-02-01T01:58:43;15.85;;;3.92;;
44728;SDS011;30457;53.590;9.922;2023-02-01T02:03:11;14.38;;;2.42;;
44728;SDS011;30457;53.590;9.922;2023-02-01T02:07:48;24.38;;;4.72;;
44728;SDS011;30457;53.590;9.922;2023-02-01T02:12:17;15.60;;;3.45;;
44728;SDS011;30457;53.590;9.922;2023-02-01T02:21:29;17.80;;;3.03;;
44728;SDS011;30457;53.590;9.922;2023-02-01T02:26:12;15.70;;;3.15;;
44728;SDS011;30457;53.590;9.922;2023-02-01T02:30:51;22.70;;;3.97;;
44728;SDS011;30457;53.590;9.922;2023-02-01T02:35:45;18.27;;;2.85;;
44728;SDS011;30457;53.590;9.922;2023-02-01T02:40:18;20.20;;;2.75;;
44728;SDS011;30457;53.590;9.922;2023-02-01T02:44:56;36.30;;;5.15;;
44728;SDS011;30457;53.590;9.922;2023-02-01T02:50:02;22.50;;;3.88;;
44728;SDS011;30457;53.590;9.922;2023-02-01T02:54:59;24.92;;;4.25;;
44728;SDS011;30457;53.590;9.922;2023-02-01T02:59:28;16.73;;;3.28;;
44728;SDS011;30457;53.590;9.922;2023-02-01T03:04:14;28.13;;;3.97;;
44728;SDS011;30457;53.590;9.922;2023-02-01T03:08:44;27.77;;;4.22;;
44728;SDS011;30457;53.590;9.922;2023-02-01T03:13:13;13.07;;;2.90;;
44728;SDS011;30457;53.590;9.922;2023-02-01T03:17:54;16.77;;;2.35;;
44728;SDS011;30457;53.590;9.922;2023-02-01T03:22:23;28.50;;;5.22;;
44728;SDS011;30457;53.590;9.922;2023-02-01T03:26:54;11.23;;;2.20;;
44728;SDS011;30457;53.590;9.922;2023-02-01T03:31:23;12.90;;;1.95;;
44728;SDS011;30457;53.590;9.922;2023-02-01T03:35:55;9.10;;;1.95;;
44728;SDS011;30457;53.590;9.922;2023-02-01T03:40:23;20.67;;;3.53;;
44728;SDS011;30457;53.590;9.922;2023-02-01T03:44:53;3.53;;;1.27;;
44728;SDS011;30457;53.590;9.922;2023-02-01T03:49:24;10.10;;;2.22;;
44728;SDS011;30457;53.590;9.922;2023-02-01T03:53:56;15.73;;;3.30;;
44728;SDS011;30457;53.590;9.922;2023-02-01T03:58:23;9.07;;;2.30;;
44728;SDS011;30457;53.590;9.922;2023-02-01T04:02:49;11.20;;;2.38;;
44728;SDS011;30457;53.590;9.922;2023-02-01T04:07:16;11.25;;;2.25;;
44728;SDS011;30457;53.590;9.922;2023-02-01T04:11:42;11.98;;;2.45;;
44728;SDS011;30457;53.590;9.922;2023-02-01T04:16:08;13.85;;;2.10;;
44728;SDS011;30457;53.590;9.922;2023-02-01T04:20:33;9.60;;;2.05;;
44728;SDS011;30457;53.590;9.922;2023-02-01T04:24:59;22.33;;;2.65;;
44728;SDS011;30457;53.590;9.922;2023-02-01T04:29:24;10.43;;;1.77;;
44728;SDS011;30457;53.590;9.922;2023-02-01T04:33:51;19.73;;;2.15;;
44728;SDS011;30457;53.590;9.922;2023-02-01T04:38:17;7.88;;;1.60;;
44728;SDS011;30457;53.590;9.922;2023-02-01T04:42:43;10.50;;;1.73;;
44728;SDS011;30457;53.590;9.922;2023-02-01T04:47:09;7.85;;;1.77;;
44728;SDS011;30457;53.590;9.922;2023-02-01T04:51:34;7.82;;;1.95;;
44728;SDS011;30457;53.590;9.922;2023-02-01T04:56:00;9.43;;;1.92;;
44728;SDS011;30457;53.590;9.922;2023-02-01T05:00:25;10.73;;;1.75;;
44728;SDS011;30457;53.590;9.922;2023-02-01T05:04:51;4.72;;;1.27;;
44728;SDS011;30457;53.590;9.922;2023-02-01T05:09:17;2.30;;;0.73;;
44728;SDS011;30457;53.590;9.922;2023-02-01T05:13:42;2.20;;;1.83;;
44728;SDS011;30457;53.590;9.922;2023-02-01T05:18:13;0.40;;;0.35;;
44728;SDS011;30457;53.590;9.922;2023-02-01T05:22:40;1.88;;;0.68;;
44728;SDS011;30457;53.590;9.922;2023-02-01T05:27:07;0.73;;;0.50;;
44728;SDS011;30457;53.590;9.922;2023-02-01T05:31:32;2.25;;;0.40;;
44728;SDS011;30457;53.590;9.922;2023-02-01T05:35:58;3.10;;;1.15;;
44728;SDS011;30457;53.590;9.922;2023-02-01T05:40:24;3.85;;;0.57;;
44728;SDS011;30457;53.590;9.922;2023-02-01T05:44:49;5.50;;;1.38;;
44728;SDS011;30457;53.590;9.922;2023-02-01T05:49:15;2.90;;;0.70;;
44728;SDS011;30457;53.590;9.922;2023-02-01T05:53:40;1.85;;;0.45;;
44728;SDS011;30457;53.590;9.922;2023-02-01T05:58:06;0.35;;;0.20;;
44728;SDS011;30457;53.590;9.922;2023-02-01T06:02:32;1.52;;;0.60;;
44728;SDS011;30457;53.590;9.922;2023-02-01T06:06:57;0.93;;;0.38;;
44728;SDS011;30457;53.590;9.922;2023-02-01T06:11:23;1.83;;;0.50;;
44728;SDS011;30457;53.590;9.922;2023-02-01T06:15:49;1.67;;;0.50;;
44728;SDS011;30457;53.590;9.922;2023-02-01T06:20:15;2.47;;;0.57;;
44728;SDS011;30457;53.590;9.922;2023-02-01T06:24:41;2.92;;;0.73;;
44728;SDS011;30457;53.590;9.922;2023-02-01T06:29:09;4.47;;;0.60;;
44728;SDS011;30457;53.590;9.922;2023-02-01T06:33:36;2.10;;;0.77;;
44728;SDS011;30457;53.590;9.922;2023-02-01T06:38:01;7.63;;;1.00;;
44728;SDS011;30457;53.590;9.922;2023-02-01T06:42:27;5.03;;;1.15;;
44728;SDS011;30457;53.590;9.922;2023-02-01T06:46:52;3.78;;;1.05;;
44728;SDS011;30457;53.590;9.922;2023-02-01T06:51:23;14.93;;;5.53;;
44728;SDS011;30457;53.590;9.922;2023-02-01T06:55:54;7.85;;;1.50;;
44728;SDS011;30457;53.590;9.922;2023-02-01T07:00:21;6.95;;;1.42;;
44728;SDS011;30457;53.590;9.922;2023-02-01T07:04:47;10.98;;;1.95;;
44728;SDS011;30457;53.590;9.922;2023-02-01T07:09:13;10.93;;;2.58;;
44728;SDS011;30457;53.590;9.922;2023-02-01T07:13:39;7.88;;;1.65;;
44728;SDS011;30457;53.590;9.922;2023-02-01T07:18:04;8.00;;;1.42;;
44728;SDS011;30457;53.590;9.922;2023-02-01T07:22:30;9.93;;;4.15;;
44728;SDS011;30457;53.590;9.922;2023-02-01T07:26:56;10.38;;;2.05;;
44728;SDS011;30457;53.590;9.922;2023-02-01T07:31:21;15.15;;;2.35;;
44728;SDS011;30457;53.590;9.922;2023-02-01T07:35:48;22.48;;;3.67;;
44728;SDS011;30457;53.590;9.922;2023-02-01T07:40:14;5.68;;;2.20;;
44728;SDS011;30457;53.590;9.922;2023-02-01T07:44:40;15.05;;;2.60;;
44728;SDS011;30457;53.590;9.922;2023-02-01T07:49:06;18.80;;;3.75;;
44728;SDS011;30457;53.590;9.922;2023-02-01T07:53:32;17.48;;;3.75;;
44728;SDS011;30457;53.590;9.922;2023-02-01T07:57:58;16.88;;;3.40;;
44728;SDS011;30457;53.590;9.922;2023-02-01T08:02:24;22.05;;;4.32;;
44728;SDS011;30457;53.590;9.922;2023-02-01T08:06:50;12.43;;;2.03;;
44728;SDS011;30457;53.590;9.922;2023-02-01T08:11:16;18.90;;;5.00;;
44728;SDS011;30457;53.590;9.922;2023-02-01T08:15:42;24.05;;;3.35;;
44728;SDS011;30457;53.590;9.922;2023-02-01T08:20:08;20.52;;;2.97;;
44728;SDS011;30457;53.590;9.922;2023-02-01T08:24:34;18.40;;;3.92;;
44728;SDS011;30457;53.590;9.922;2023-02-01T08:29:01;22.83;;;3.22;;
44728;SDS011;30457;53.590;9.922;2023-02-01T08:33:29;16.42;;;2.95;;
44728;SDS011;30457;53.590;9.922;2023-02-01T08:37:54;12.90;;;2.17;;
44728;SDS011;30457;53.590;9.922;2023-02-01T08:42:20;22.75;;;3.70;;
44728;SDS011;30457;53.590;9.922;2023-02-01T08:47:04;16.30;;;2.75;;
44728;SDS011;30457;53.590;9.922;2023-02-01T08:51:30;9.45;;;1.90;;
44728;SDS011;30457;53.590;9.922;2023-02-01T08:55:55;12.80;;;3.05;;
44728;SDS011;30457;53.590;9.922;2023-02-01T09:00:21;11.07;;;1.90;;
44728;SDS011;30457;53.590;9.922;2023-02-01T09:04:47;17.05;;;3.30;;
44728;SDS011;30457;53.590;9.922;2023-02-01T09:09:12;15.88;;;3.35;;
44728;SDS011;30457;53.590;9.922;2023-02-01T09:13:38;39.30;;;4.93;;
44728;SDS011;30457;53.590;9.922;2023-02-01T09:18:03;14.10;;;2.80;;
44728;SDS011;30457;53.590;9.922;2023-02-01T09:22:29;9.70;;;2.22;;
44728;SDS011;30457;53.590;9.922;2023-02-01T09:26:55;10.50;;;2.22;;
44728;SDS011;30457;53.590;9.922;2023-02-01T09:31:20;12.23;;;2.25;;
44728;SDS011;30457;53.590;9.922;2023-02-01T09:35:46;24.67;;;3.33;;
44728;SDS011;30457;53.590;9.922;2023-02-01T09:40:13;7.85;;;2.13;;
44728;SDS011;30457;53.590;9.922;2023-02-01T09:49:10;26.73;;;3.08;;
44728;SDS011;30457;53.590;9.922;2023-02-01T09:53:41;17.20;;;3.17;;
44728;SDS011;30457;53.590;9.922;2023-02-01T10:02:46;12.35;;;3.22;;
44728;SDS011;30457;53.590;9.922;2023-02-01T10:21:40;14.65;;;2.65;;
44728;SDS011;30457;53.590;9.922;2023-02-01T10:26:31;20.13;;;2.05;;
44728;SDS011;30457;53.590;9.922;2023-02-01T10:30:58;14.95;;;2.05;;
44728;SDS011;30457;53.590;9.922;2023-02-01T10:35:27;15.43;;;3.50;;
44728;SDS011;30457;53.590;9.922;2023-02-01T10:39:56;14.10;;;2.90;;
44728;SDS011;30457;53.590;9.922;2023-02-01T10:44:25;16.00;;;4.38;;
44728;SDS011;30457;53.590;9.922;2023-02-01T10:48:55;14.35;;;2.60;;
44728;SDS011;30457;53.590;9.922;2023-02-01T10:53:24;15.48;;;3.15;;
44728;SDS011;30457;53.590;9.922;2023-02-01T10:58:01;20.88;;;3.30;;
44728;SDS011;30457;53.590;9.922;2023-02-01T11:02:30;18.80;;;2.63;;
44728;SDS011;30457;53.590;9.922;2023-02-01T11:07:05;17.73;;;3.95;;
44728;SDS011;30457;53.590;9.922;2023-02-01T11:16:13;11.35;;;3.00;;
44728;SDS011;30457;53.590;9.922;2023-02-01T11:20:40;12.23;;;2.90;;
44728;SDS011;30457;53.590;9.922;2023-02-01T11:25:07;11.48;;;2.30;;
44728;SDS011;30457;53.590;9.922;2023-02-01T11:29:36;15.82;;;2.30;;
44728;SDS011;30457;53.590;9.922;2023-02-01T11:34:09;16.05;;;2.78;;
44728;SDS011;30457;53.590;9.922;2023-02-01T11:38:39;15.20;;;2.95;;
44728;SDS011;30457;53.590;9.922;2023-02-01T11:43:09;17.80;;;2.45;;
44728;SDS011;30457;53.590;9.922;2023-02-01T11:47:52;8.03;;;2.30;;
44728;SDS011;30457;53.590;9.922;2023-02-01T12:01:28;9.20;;;2.63;;
44728;SDS011;30457;53.590;9.922;2023-02-01T12:06:20;7.45;;;1.75;;
44728;SDS011;30457;53.590;9.922;2023-02-01T12:16:15;5.35;;;2.25;;
44728;SDS011;30457;53.590;9.922;2023-02-01T12:30:10;6.72;;;1.08;;
44728;SDS011;30457;53.590;9.922;2023-02-01T12:34:56;3.42;;;1.38;;
44728;SDS011;30457;53.590;9.922;2023-02-01T12:39:40;6.20;;;2.60;;
44728;SDS011;30457;53.590;9.922;2023-02-01T12:44:31;1.70;;;0.73;;
44728;SDS011;30457;53.590;9.922;2023-02-01T12:49:12;3.10;;;0.80;;
44728;SDS011;30457;53.590;9.922;2023-02-01T12:59:03;1.85;;;0.57;;
44728;SDS011;30457;53.590;9.922;2023-02-01T13:03:36;2.53;;;0.77;;
44728;SDS011;30457;53.590;9.922;2023-02-01T13:08:05;2.75;;;0.55;;
44728;SDS011;30457;53.590;9.922;2023-02-01T13:12:36;1.38;;;0.77;;
44728;SDS011;30457;53.590;9.922;2023-02-01T13:17:08;1.27;;;0.70;;
44728;SDS011;30457;53.590;9.922;2023-02-01T13:21:39;1.35;;;0.60;;
44728;SDS011;30457;53.590;9.922;2023-02-01T13:26:08;1.70;;;0.47;;
44728;SDS011;30457;53.590;9.922;2023-02-01T13:30:37;1.25;;;0.47;;
44728;SDS011;30457;53.590;9.922;2023-02-01T13:45:14;1.30;;;0.50;;
44728;SDS011;30457;53.590;9.922;2023-02-01T13:54:22;6.83;;;1.17;;
44728;SDS011;30457;53.590;9.922;2023-02-01T13:58:48;8.55;;;2.20;;
44728;SDS011;30457;53.590;9.922;2023-02-01T14:12:48;5.00;;;0.98;;
44728;SDS011;30457;53.590;9.922;2023-02-01T14:21:50;9.50;;;2.65;;
44728;SDS011;30457;53.590;9.922;2023-02-01T14:31:16;9.18;;;2.10;;
44728;SDS011;30457;53.590;9.922;2023-02-01T14:36:05;8.15;;;1.67;;
44728;SDS011;30457;53.590;9.922;2023-02-01T14:40:36;3.80;;;0.88;;
44728;SDS011;30457;53.590;9.922;2023-02-01T14:49:52;6.22;;;1.25;;
44728;SDS011;30457;53.590;9.922;2023-02-01T14:54:25;8.57;;;1.55;;
44728;SDS011;30457;53.590;9.922;2023-02-01T14:59:01;6.70;;;1.17;;
44728;SDS011;30457;53.590;9.922;2023-02-01T15:03:47;5.82;;;1.38;;
44728;SDS011;30457;53.590;9.922;2023-02-01T15:08:24;9.43;;;1.52;;
44728;SDS011;30457;53.590;9.922;2023-02-01T15:12:53;8.57;;;1.42;;
44728;SDS011;30457;53.590;9.922;2023-02-01T15:17:20;8.98;;;1.83;;
44728;SDS011;30457;53.590;9.922;2023-02-01T15:21:47;8.27;;;1.42;;
44728;SDS011;30457;53.590;9.922;2023-02-01T15:26:24;11.23;;;2.42;;
44728;SDS011;30457;53.590;9.922;2023-02-01T15:30:58;8.82;;;1.00;;
44728;SDS011;30457;53.590;9.922;2023-02-01T15:35:36;17.17;;;1.55;;
44728;SDS011;30457;53.590;9.922;2023-02-01T15:44:40;8.38;;;2.60;;
44728;SDS011;30457;53.590;9.922;2023-02-01T15:49:40;10.88;;;2.03;;
44728;SDS011;30457;53.590;9.922;2023-02-01T15:54:07;15.57;;;4.43;;
44728;SDS011;30457;53.590;9.922;2023-02-01T15:58:40;15.15;;;2.17;;
44728;SDS011;30457;53.590;9.922;2023-02-01T16:08:04;10.00;;;2.97;;
44728;SDS011;30457;53.590;9.922;2023-02-01T16:17:07;6.57;;;1.85;;
44728;SDS011;30457;53.590;9.922;2023-02-01T16:21:33;9.65;;;2.05;;
44728;SDS011;30457;53.590;9.922;2023-02-01T16:25:59;9.70;;;2.08;;
44728;SDS011;30457;53.590;9.922;2023-02-01T16:30:24;11.73;;;1.80;;
44728;SDS011;30457;53.590;9.922;2023-02-01T16:34:50;14.20;;;2.35;;
44728;SDS011;30457;53.590;9.922;2023-02-01T16:39:18;8.77;;;2.00;;
44728;SDS011;30457;53.590;9.922;2023-02-01T16:43:45;16.80;;;3.15;;
44728;SDS011;30457;53.590;9.922;2023-02-01T16:48:14;16.48;;;4.00;;
44728;SDS011;30457;53.590;9.922;2023-02-01T16:52:46;17.60;;;3.10;;
44728;SDS011;30457;53.590;9.922;2023-02-01T16:57:12;16.98;;;2.78;;
44728;SDS011;30457;53.590;9.922;2023-02-01T17:01:40;27.27;;;6.47;;
44728;SDS011;30457;53.590;9.922;2023-02-01T17:06:07;24.88;;;3.40;;
44728;SDS011;30457;53.590;9.922;2023-02-01T17:10:35;17.88;;;2.97;;
44728;SDS011;30457;53.590;9.922;2023-02-01T17:15:01;29.85;;;5.15;;
44728;SDS011;30457;53.590;9.922;2023-02-01T17:19:29;20.95;;;3.97;;
44728;SDS011;30457;53.590;9.922;2023-02-01T17:23:54;16.20;;;5.18;;
44728;SDS011;30457;53.590;9.922;2023-02-01T17:28:20;16.48;;;4.05;;
44728;SDS011;30457;53.590;9.922;2023-02-01T17:32:45;17.60;;;2.97;;
44728;SDS011;30457;53.590;9.922;2023-02-01T17:37:22;18.27;;;4.20;;
44728;SDS011;30457;53.590;9.922;2023-02-01T17:41:56;30.08;;;4.90;;
44728;SDS011;30457;53.590;9.922;2023-02-01T17:46:22;21.52;;;3.70;;
44728;SDS011;30457;53.590;9.922;2023-02-01T17:50:51;16.10;;;3.05;;
44728;SDS011;30457;53.590;9.922;2023-02-01T17:55:23;23.92;;;3.15;;
44728;SDS011;30457;53.590;9.922;2023-02-01T17:59:49;18.25;;;2.85;;
44728;SDS011;30457;53.590;9.922;2023-02-01T18:04:15;15.40;;;2.85;;
44728;SDS011;30457;53.590;9.922;2023-02-01T18:08:43;20.17;;;4.38;;
44728;SDS011;30457;53.590;9.922;2023-02-01T18:13:10;20.05;;;2.58;;
44728;SDS011;30457;53.590;9.922;2023-02-01T18:17:36;13.40;;;2.63;;
44728;SDS011;30457;53.590;9.922;2023-02-01T18:22:02;22.63;;;2.80;;
44728;SDS011;30457;53.590;9.922;2023-02-01T18:26:29;15.27;;;2.95;;
44728;SDS011;30457;53.590;9.922;2023-02-01T18:30:54;14.75;;;2.70;;
44728;SDS011;30457;53.590;9.922;2023-02-01T18:35:22;27.25;;;3.17;;
44728;SDS011;30457;53.590;9.922;2023-02-01T18:39:48;26.67;;;3.13;;
44728;SDS011;30457;53.590;9.922;2023-02-01T18:44:15;18.38;;;3.90;;
44728;SDS011;30457;53.590;9.922;2023-02-01T18:48:41;23.00;;;3.58;;
44728;SDS011;30457;53.590;9.922;2023-02-01T18:53:10;18.02;;;5.13;;
44728;SDS011;30457;53.590;9.922;2023-02-01T18:57:38;19.83;;;2.45;;
44728;SDS011;30457;53.590;9.922;2023-02-01T19:02:04;19.70;;;3.22;;
44728;SDS011;30457;53.590;9.922;2023-02-01T19:06:29;24.05;;;3.00;;
44728;SDS011;30457;53.590;9.922;2023-02-01T19:10:55;30.02;;;5.00;;
44728;SDS011;30457;53.590;9.922;2023-02-01T19:19:55;14.32;;;3.47;;
44728;SDS011;30457;53.590;9.922;2023-02-01T19:24:24;18.60;;;3.45;;
44728;SDS011;30457;53.590;9.922;2023-02-01T19:28:51;15.30;;;2.67;;
44728;SDS011;30457;53.590;9.922;2023-02-01T19:33:17;16.88;;;3.53;;
44728;SDS011;30457;53.590;9.922;2023-02-01T19:37:43;15.10;;;2.45;;
44728;SDS011;30457;53.590;9.922;2023-02-01T19:42:08;10.68;;;2.47;;
44728;SDS011;30457;53.590;9.922;2023-02-01T19:46:34;17.38;;;5.25;;
44728;SDS011;30457;53.590;9.922;2023-02-01T19:50:59;7.90;;;1.13;;
44728;SDS011;30457;53.590;9.922;2023-02-01T19:55:25;5.32;;;1.00;;
44728;SDS011;30457;53.590;9.922;2023-02-01T19:59:51;10.43;;;1.65;;
44728;SDS011;30457;53.590;9.922;2023-02-01T20:04:17;11.40;;;2.63;;
44728;SDS011;30457;53.590;9.922;2023-02-01T20:08:43;11.30;;;2.03;;
44728;SDS011;30457;53.590;9.922;2023-02-01T20:13:09;10.13;;;1.77;;
44728;SDS011;30457;53.590;9.922;2023-02-01T20:17:35;13.32;;;2.20;;
44728;SDS011;30457;53.590;9.922;2023-02-01T20:22:01;12.80;;;1.70;;
44728;SDS011;30457;53.590;9.922;2023-02-01T20:26:26;20.40;;;3.97;;
44728;SDS011;30457;53.590;9.922;2023-02-01T20:30:52;17.50;;;3.47;;
44728;SDS011;30457;53.590;9.922;2023-02-01T20:35:18;14.82;;;2.90;;
44728;SDS011;30457;53.590;9.922;2023-02-01T20:39:43;17.65;;;2.85;;
44728;SDS011;30457;53.590;9.922;2023-02-01T20:44:09;16.50;;;3.50;;
44728;SDS011;30457;53.590;9.922;2023-02-01T20:48:35;24.95;;;3.13;;
44728;SDS011;30457;53.590;9.922;2023-02-01T20:53:01;18.15;;;2.70;;
44728;SDS011;30457;53.590;9.922;2023-02-01T20:57:27;17.17;;;3.35;;
44728;SDS011;30457;53.590;9.922;2023-02-01T21:01:52;14.38;;;2.85;;
44728;SDS011;30457;53.590;9.922;2023-02-01T21:06:18;21.90;;;2.75;;
44728;SDS011;30457;53.590;9.922;2023-02-01T21:10:53;15.02;;;2.25;;
44728;SDS011;30457;53.590;9.922;2023-02-01T21:15:29;24.92;;;3.63;;
44728;SDS011;30457;53.590;9.922;2023-02-01T21:19:58;16.17;;;3.10;;
44728;SDS011;30457;53.590;9.922;2023-02-01T21:24:24;19.20;;;3.95;;
44728;SDS011;30457;53.590;9.922;2023-02-01T21:28:50;23.23;;;3.30;;
44728;SDS011;30457;53.590;9.922;2023-02-01T21:33:17;16.90;;;2.80;;
44728;SDS011;30457;53.590;9.922;2023-02-01T21:37:42;18.25;;;2.90;;
44728;SDS011;30457;53.590;9.922;2023-02-01T21:42:08;19.92;;;3.17;;
44728;SDS011;30457;53.590;9.922;2023-02-01T21:46:37;30.98;;;3.63;;
44728;SDS011;30457;53.590;9.922;2023-02-01T21:51:03;20.48;;;3.80;;
44728;SDS011;30457;53.590;9.922;2023-02-01T21:55:30;22.58;;;4.25;;
44728;SDS011;30457;53.590;9.922;2023-02-01T21:59:55;28.92;;;4.25;;
44728;SDS011;30457;53.590;9.922;2023-02-01T22:04:22;23.23;;;4.65;;
44728;SDS011;30457;53.590;9.922;2023-02-01T22:08:48;20.83;;;3.88;;
44728;SDS011;30457;53.590;9.922;2023-02-01T22:13:13;17.40;;;3.67;;
44728;SDS011;30457;53.590;9.922;2023-02-01T22:17:39;27.25;;;4.70;;
44728;SDS011;30457;53.590;9.922;2023-02-01T22:22:05;13.90;;;2.42;;
44728;SDS011;30457;53.590;9.922;2023-02-01T22:26:30;26.88;;;4.10;;
44728;SDS011;30457;53.590;9.922;2023-02-01T22:30:59;26.63;;;3.13;;
44728;SDS011;30457;53.590;9.922;2023-02-01T22:35:29;22.38;;;5.13;;
44728;SDS011;30457;53.590;9.922;2023-02-01T22:39:54;13.38;;;2.90;;
44728;SDS011;30457;53.590;9.922;2023-02-01T22:44:22;17.98;;;3.25;;
44728;SDS011;30457;53.590;9.922;2023-02-01T22:48:47;18.83;;;3.70;;
44728;SDS011;30457;53.590;9.922;2023-02-01T22:53:13;13.27;;;3.28;;
44728;SDS011;30457;53.590;9.922;2023-02-01T22:57:39;20.55;;;3.72;;
44728;SDS011;30457;53.590;9.922;2023-02-01T23:02:04;18.95;;;2.97;;
44728;SDS011;30457;53.590;9.922;2023-02-01T23:06:30;24.63;;;3.30;;
44728;SDS011;30457;53.590;9.922;2023-02-01T23:10:57;24.48;;;3.45;;
44728;SDS011;30457;53.590;9.922;2023-02-01T23:15:24;25.10;;;3.60;;
44728;SDS011;30457;53.590;9.922;2023-02-01T23:19:50;25.60;;;3.25;;
44728;SDS011;30457;53.590;9.922;2023-02-01T23:24:16;18.85;;;4.20;;
44728;SDS011;30457;53.590;9.922;2023-02-01T23:28:41;18.33;;;5.00;;
44728;SDS011;30457;53.590;9.922;2023-02-01T23:33:08;18.70;;;3.97;;
44728;SDS011;30457;53.590;9.922;2023-02-01T23:37:33;21.60;;;3.47;;
44728;SDS011;30457;53.590;9.922;2023-02-01T23:41:59;16.08;;;2.20;;
44728;SDS011;30457;53.590;9.922;2023-02-01T23:46:28;20.45;;;3.60;;
44728;SDS011;30457;53.590;9.922;2023-02-01T23:51:14;23.02;;;6.15;;
44728;SDS011;30457;53.590;9.922;2023-02-01T23:55:40;20.83;;;3.75;;
